createdAt,value
2023-04-07T00:01:55.257Z,3.43
2023-04-07T00:06:57.740Z,3.20
2023-04-07T00:12:02.753Z,3.13
2023-04-07T00:17:07.187Z,2.90
2023-04-07T00:22:09.746Z,3.07
2023-04-07T00:27:12.234Z,3.40
2023-04-07T00:32:14.681Z,3.13
2023-04-07T00:37:19.367Z,3.63
2023-04-07T00:42:21.798Z,3.37
2023-04-07T00:47:24.376Z,3.73
2023-04-07T00:52:29.154Z,3.63
2023-04-07T00:57:31.737Z,3.53
2023-04-07T01:02:58.208Z,3.63
2023-04-07T01:08:45.328Z,3.90
2023-04-07T01:13:50.994Z,4.03
2023-04-07T01:19:26.218Z,4.13
2023-04-07T01:24:44.226Z,4.50
2023-04-07T01:29:48.501Z,4.20
2023-04-07T01:34:52.596Z,4.00
2023-04-07T01:39:55.407Z,4.03
2023-04-07T01:44:59.004Z,3.50
2023-04-07T01:50:04.707Z,4.27
2023-04-07T01:55:07.950Z,4.60
2023-04-07T02:00:15.333Z,4.40
2023-04-07T02:05:22.434Z,4.77
2023-04-07T02:10:27.013Z,4.33
2023-04-07T02:15:34.250Z,4.60
2023-04-07T02:20:37.819Z,4.03
2023-04-07T02:25:40.384Z,4.67
2023-04-07T02:30:42.896Z,4.43
2023-04-07T02:35:48.141Z,4.50
2023-04-07T02:40:50.621Z,4.70
2023-04-07T02:45:53.189Z,4.83
2023-04-07T02:50:55.579Z,4.63
2023-04-07T02:55:58.746Z,4.87
2023-04-07T03:01:01.350Z,4.53
2023-04-07T03:06:07.081Z,5.03
2023-04-07T03:11:12.925Z,5.30
2023-04-07T03:16:15.549Z,4.77
2023-04-07T03:21:32.072Z,5.27
2023-04-07T03:26:34.905Z,5.20
2023-04-07T03:31:38.934Z,5.40
2023-04-07T03:36:41.598Z,5.17
2023-04-07T03:41:44.200Z,5.03
2023-04-07T03:46:48.325Z,5.33
2023-04-07T03:51:52.186Z,5.60
2023-04-07T03:56:56.903Z,5.40
2023-04-07T04:01:59.714Z,5.73
2023-04-07T04:07:02.519Z,5.23
2023-04-07T04:12:14.561Z,5.57
2023-04-07T04:17:29.900Z,5.63
2023-04-07T04:22:32.689Z,5.37
2023-04-07T04:27:35.563Z,5.40
2023-04-07T04:32:44.832Z,5.43
2023-04-07T04:37:47.283Z,6.40
2023-04-07T04:49:34.239Z,6.10
2023-04-07T04:54:42.006Z,5.83
2023-04-07T04:59:47.955Z,5.87
2023-04-07T05:04:53.315Z,5.93
2023-04-07T05:10:00.647Z,5.63
2023-04-07T05:15:03.366Z,5.90
2023-04-07T05:20:12.152Z,5.73
2023-04-07T05:25:19.441Z,5.43
2023-04-07T05:30:25.718Z,5.67
2023-04-07T05:35:28.764Z,6.07
2023-04-07T05:40:35.053Z,5.80
2023-04-07T05:45:39.771Z,5.67
2023-04-07T05:50:43.566Z,12.00
2023-04-07T05:55:49.652Z,6.47
2023-04-07T06:01:10.928Z,5.37
2023-04-07T06:06:13.612Z,5.23
2023-04-07T06:11:16.809Z,4.90
2023-04-07T06:16:19.804Z,5.23
2023-04-07T06:21:22.500Z,4.83
2023-04-07T06:26:25.338Z,5.37
2023-04-07T06:31:31.094Z,5.23
2023-04-07T06:36:34.000Z,5.27
2023-04-07T06:41:37.146Z,5.30
2023-04-07T06:46:42.399Z,5.60
2023-04-07T06:51:45.131Z,6.07
2023-04-07T07:24:40.234Z,7.03
2023-04-07T07:29:56.531Z,6.83
2023-04-07T07:35:56.351Z,7.07
2023-04-07T07:41:47.170Z,7.70
2023-04-07T07:47:40.000Z,7.87
2023-04-07T07:59:40.412Z,7.93
2023-04-07T08:16:50.955Z,8.83
2023-04-07T08:21:53.424Z,9.20
2023-04-07T08:26:56.109Z,9.37
2023-04-07T08:43:10.760Z,9.93
2023-04-07T08:48:27.015Z,16.83
2023-04-07T08:59:51.734Z,12.33
2023-04-07T09:05:10.086Z,9.50
2023-04-07T09:10:21.148Z,10.90
2023-04-07T09:15:35.822Z,9.93
2023-04-07T09:21:01.992Z,17.63
2023-04-07T09:26:25.281Z,19.60
2023-04-07T09:32:16.318Z,54.03
2023-04-07T09:37:47.424Z,18.60
2023-04-07T09:43:00.501Z,12.27
2023-04-07T09:48:23.217Z,14.15
2023-04-07T09:53:55.491Z,10.07
2023-04-07T09:59:04.294Z,8.70
2023-04-07T10:04:10.332Z,9.80
2023-04-07T10:09:13.132Z,8.10
2023-04-07T10:14:16.774Z,8.60
2023-04-07T10:24:55.968Z,10.47
2023-04-07T10:30:00.295Z,8.50
2023-04-07T10:35:02.572Z,9.23
2023-04-07T10:40:34.939Z,10.10
2023-04-07T10:45:49.112Z,8.17
2023-04-07T10:51:07.355Z,7.73
2023-04-07T10:56:09.618Z,7.50
2023-04-07T11:01:12.594Z,7.77
2023-04-07T11:06:14.988Z,7.80
2023-04-07T11:11:38.741Z,7.33
2023-04-07T11:16:43.504Z,7.87
2023-04-07T11:21:46.191Z,7.93
2023-04-07T11:26:50.554Z,7.73
2023-04-07T11:31:53.276Z,7.33
2023-04-07T11:36:59.531Z,7.83
2023-04-07T11:42:01.867Z,7.30
2023-04-07T11:47:05.183Z,7.80
2023-04-07T11:52:07.728Z,8.63
2023-04-07T11:57:12.870Z,8.07
2023-04-07T12:02:34.834Z,7.77
2023-04-07T12:07:38.557Z,6.90
2023-04-07T12:12:46.315Z,7.13
2023-04-07T12:17:49.280Z,7.77
2023-04-07T12:22:51.608Z,8.33
2023-04-07T12:27:54.317Z,7.83
2023-04-07T12:32:56.604Z,8.77
2023-04-07T12:37:58.842Z,10.68
2023-04-07T12:43:01.184Z,10.17
2023-04-07T12:48:03.732Z,11.03
2023-04-07T12:53:06.085Z,12.07
2023-04-07T12:58:09.482Z,10.87
2023-04-07T13:03:11.963Z,11.20
2023-04-07T13:08:14.345Z,12.03
2023-04-07T13:13:16.673Z,12.13
2023-04-07T13:18:19.218Z,12.30
2023-04-07T13:23:21.484Z,13.50
2023-04-07T13:28:25.363Z,13.83
2023-04-07T13:33:27.600Z,15.10
2023-04-07T13:38:29.846Z,16.70
2023-04-07T13:43:32.106Z,16.83
2023-04-07T13:48:34.408Z,19.50
2023-04-07T13:53:36.903Z,15.73
2023-04-07T13:58:39.443Z,17.73
2023-04-07T14:03:42.936Z,17.27
2023-04-07T14:08:45.570Z,18.57
2023-04-07T14:13:48.922Z,18.13
2023-04-07T14:18:51.723Z,19.13
2023-04-07T14:23:55.134Z,19.07
2023-04-07T14:28:58.496Z,24.90
2023-04-07T14:34:00.976Z,18.13
2023-04-07T14:39:03.990Z,18.33
2023-04-07T14:44:09.007Z,17.93
2023-04-07T14:49:13.171Z,18.00
2023-04-07T14:54:18.101Z,20.27
2023-04-07T14:59:20.594Z,19.30
2023-04-07T15:05:20.297Z,18.70
2023-04-07T15:10:25.458Z,17.83
2023-04-07T15:15:27.945Z,19.98
2023-04-07T15:20:30.283Z,20.20
2023-04-07T15:25:32.581Z,20.03
2023-04-07T15:30:37.203Z,19.40
2023-04-07T15:35:43.994Z,22.93
2023-04-07T15:40:46.457Z,19.50
2023-04-07T15:45:48.781Z,19.97
2023-04-07T15:50:52.048Z,21.07
2023-04-07T15:55:54.900Z,22.13
2023-04-07T16:00:57.500Z,22.10
2023-04-07T16:05:59.831Z,21.63
2023-04-07T16:11:02.096Z,22.90
2023-04-07T16:16:04.588Z,22.97
2023-04-07T16:21:08.634Z,24.40
2023-04-07T16:26:11.102Z,24.73
2023-04-07T16:31:14.325Z,25.93
2023-04-07T16:36:16.751Z,24.47
2023-04-07T16:41:20.190Z,24.53
2023-04-07T16:46:26.058Z,25.20
2023-04-07T16:51:29.495Z,32.70
2023-04-07T16:56:31.792Z,25.47
2023-04-07T17:01:34.164Z,24.33
2023-04-07T17:06:36.606Z,27.70
2023-04-07T17:11:41.063Z,27.40
2023-04-07T17:16:43.393Z,26.67
2023-04-07T17:21:46.614Z,27.50
2023-04-07T17:26:49.145Z,31.60
2023-04-07T17:31:52.004Z,28.83
2023-04-07T17:36:54.222Z,32.43
2023-04-07T17:42:00.211Z,27.80
2023-04-07T17:47:02.834Z,26.97
2023-04-07T17:52:13.501Z,26.03
2023-04-07T17:57:16.901Z,26.57
2023-04-07T18:02:19.432Z,27.33
2023-04-07T18:07:22.377Z,26.23
2023-04-07T18:12:24.812Z,25.80
2023-04-07T18:17:27.226Z,26.93
2023-04-07T18:22:30.417Z,26.97
2023-04-07T18:27:32.831Z,28.13
2023-04-07T18:32:35.882Z,27.47
2023-04-07T18:37:38.322Z,26.63
2023-04-07T18:42:40.779Z,50.60
2023-04-07T18:47:43.200Z,28.77
2023-04-07T18:52:45.752Z,29.33
2023-04-07T18:57:48.892Z,42.27
2023-04-07T19:02:51.528Z,32.30
2023-04-07T19:07:54.116Z,52.73
2023-04-07T19:12:56.558Z,52.80
2023-04-07T19:17:58.979Z,31.77
2023-04-07T19:23:02.108Z,27.93
2023-04-07T19:28:05.457Z,27.30
2023-04-07T19:33:08.255Z,30.43
2023-04-07T19:38:10.966Z,32.57
2023-04-07T19:43:14.254Z,33.37
2023-04-07T19:48:17.581Z,32.33
2023-04-07T19:53:20.118Z,29.80
2023-04-07T19:58:23.450Z,27.57
2023-04-07T20:03:25.942Z,26.93
2023-04-07T20:08:28.323Z,28.17
2023-04-07T20:13:31.830Z,28.13
2023-04-07T20:18:34.286Z,27.03
2023-04-07T20:23:36.755Z,27.77
2023-04-07T20:28:39.162Z,27.13
2023-04-07T20:33:42.034Z,27.00
2023-04-07T20:38:44.578Z,29.27
2023-04-07T20:43:47.030Z,28.43
2023-04-07T20:48:49.579Z,30.50
2023-04-07T20:53:52.243Z,30.47
2023-04-07T20:58:54.919Z,31.60
2023-04-07T21:03:57.625Z,32.10
2023-04-07T21:09:00.125Z,31.77
2023-04-07T21:14:03.207Z,30.67
2023-04-07T21:19:06.362Z,28.30
2023-04-07T21:24:08.719Z,29.70
2023-04-07T21:29:11.381Z,28.90
2023-04-07T21:34:14.381Z,28.73
2023-04-07T21:39:16.787Z,30.00
2023-04-07T21:44:21.104Z,28.30
2023-04-07T21:49:25.369Z,27.83
2023-04-07T21:54:27.725Z,28.97
2023-04-07T21:59:30.066Z,28.80
2023-04-07T22:04:32.546Z,31.13
2023-04-07T22:09:35.103Z,30.23
2023-04-07T22:14:37.436Z,29.07
2023-04-07T22:19:39.829Z,29.07
2023-04-07T22:24:42.167Z,30.00
2023-04-07T22:29:44.544Z,25.80
2023-04-07T22:34:47.681Z,23.23
2023-04-07T22:39:50.048Z,21.17
2023-04-07T22:44:52.620Z,18.37
2023-04-07T22:49:55.024Z,16.57
2023-04-07T22:54:57.905Z,14.97
2023-04-07T23:00:00.571Z,11.97
2023-04-07T23:05:03.304Z,11.63
2023-04-07T23:10:07.831Z,11.60
2023-04-07T23:15:10.766Z,11.23
2023-04-07T23:20:13.284Z,10.50
2023-04-07T23:25:15.753Z,11.70
2023-04-07T23:30:18.333Z,11.53
2023-04-07T23:35:21.138Z,11.13
2023-04-07T23:40:23.611Z,10.80
2023-04-07T23:45:26.110Z,11.77
2023-04-07T23:50:28.526Z,10.30
2023-04-07T23:55:31.268Z,11.50
